Observation data for Gail on 04/26/2019      Previous  Date       Current Mesonet Observations  Soil Data  Daily Summary Page  Observations in Plain Language
KGGS 260500Z 04006KT 17/11 A3015 RMK A01 T01700106  RH  068%=      5-min Rain = 0
KGGS 260505Z 04006KT 17/11 A3015 RMK A01 T01690106  RH  069%=      5-min Rain = 0
KGGS 260510Z 04006KT 17/11 A3015 RMK A01 T01690106  RH  069%=      5-min Rain = 0
KGGS 260515Z 04006KT 17/11 A3015 RMK A01 T01690106  RH  069%=      5-min Rain = 0
KGGS 260520Z 04006KT 17/11 A3015 RMK A01 T01670106  RH  070%=      5-min Rain = 0
KGGS 260525Z 04007KT 17/11 A3015 RMK A01 T01650107  RH  071%=      5-min Rain = 0
KGGS 260530Z 04006KT 17/11 A3015 RMK A01 T01650107  RH  071%=      5-min Rain = 0
KGGS 260535Z 04005KT 17/11 A3016 RMK A01 T01650107  RH  071%=      5-min Rain = 0
KGGS 260540Z 04006KT 16/11 A3015 RMK A01 T01640107  RH  071%=      5-min Rain = 0
KGGS 260545Z 04006KT 16/11 A3015 RMK A01 T01630107  RH  072%=      5-min Rain = 0
KGGS 260550Z 04007KT 16/11 A3016 RMK A01 T01640107  RH  071%=      5-min Rain = 0
KGGS 260555Z 04007KT 16/11 A3016 RMK A01 T01640106  RH  071%=      5-min Rain = 0
KGGS 260600Z 04007KT 16/11 A3016 RMK A01 T01630106  RH  071%=      5-min Rain = 0
KGGS 260605Z 04007KT 16/11 A3016 RMK A01 T01630106  RH  071%=      5-min Rain = 0
KGGS 260610Z 04007KT 16/11 A3016 RMK A01 T01610106  RH  072%=      5-min Rain = 0
KGGS 260615Z 04007KT 16/11 A3016 RMK A01 T01590106  RH  073%=      5-min Rain = 0
KGGS 260620Z 04007KT 16/11 A3016 RMK A01 T01580106  RH  073%=      5-min Rain = 0
KGGS 260625Z 04007KT 16/11 A3016 RMK A01 T01590106  RH  073%=      5-min Rain = 0
KGGS 260630Z 04006KT 16/11 A3016 RMK A01 T01580106  RH  074%=      5-min Rain = 0
KGGS 260635Z 04006KT 16/11 A3016 RMK A01 T01560106  RH  074%=      5-min Rain = 0
KGGS 260640Z 04006KT 15/11 A3016 RMK A01 T01540106  RH  075%=      5-min Rain = 0
KGGS 260645Z 04007KT 15/11 A3016 RMK A01 T01520106  RH  076%=      5-min Rain = 0
KGGS 260650Z 04006KT 15/11 A3017 RMK A01 T01520106  RH  077%=      5-min Rain = 0
KGGS 260655Z 04006KT 15/11 A3017 RMK A01 T01500106  RH  077%=      5-min Rain = 0
KGGS 260700Z 04005KT 15/11 A3017 RMK A01 T01500106  RH  077%=      5-min Rain = 0
KGGS 260705Z 05005KT 15/11 A3017 RMK A01 T01480105  RH  078%=      5-min Rain = 0
KGGS 260710Z 04005KT 15/10 A3017 RMK A01 T01450104  RH  079%=      5-min Rain = 0
KGGS 260715Z 04005KT 14/10 A3017 RMK A01 T01440104  RH  080%=      5-min Rain = 0
KGGS 260720Z 03006KT 14/10 A3017 RMK A01 T01430104  RH  080%=      5-min Rain = 0
KGGS 260725Z 04005KT 14/10 A3017 RMK A01 T01430103  RH  080%=      5-min Rain = 0
KGGS 260730Z 04004KT 14/10 A3017 RMK A01 T01430103  RH  080%=      5-min Rain = 0
KGGS 260735Z 05004KT 14/10 A3017 RMK A01 T01440103  RH  079%=      5-min Rain = 0
KGGS 260740Z 06004KT 15/10 A3017 RMK A01 T01450102  RH  078%=      5-min Rain = 0
KGGS 260745Z 06003KT 14/10 A3017 RMK A01 T01430102  RH  079%=      5-min Rain = 0
KGGS 260750Z 06003KT 14/10 A3017 RMK A01 T01430101  RH  079%=      5-min Rain = 0
KGGS 260755Z 08003KT 14/10 A3017 RMK A01 T01420100  RH  079%=      5-min Rain = 0
KGGS 260800Z 07004KT 14/10 A3017 RMK A01 T01410099  RH  078%=      5-min Rain = 0
KGGS 260805Z 06004KT 14/10 A3016 RMK A01 T01410097  RH  077%=      5-min Rain = 0
KGGS 260810Z 06004KT 14/10 A3016 RMK A01 T01390096  RH  078%=      5-min Rain = 0
KGGS 260815Z 06004KT 14/10 A3016 RMK A01 T01370095  RH  078%=      5-min Rain = 0
KGGS 260820Z 07004KT 14/10 A3017 RMK A01 T01370095  RH  078%=      5-min Rain = 0
KGGS 260825Z 07005KT 14/09 A3016 RMK A01 T01380094  RH  077%=      5-min Rain = 0
KGGS 260830Z 07005KT 14/09 A3016 RMK A01 T01390093  RH  076%=      5-min Rain = 0
KGGS 260835Z 07005KT 14/09 A3016 RMK A01 T01400092  RH  075%=      5-min Rain = 0
KGGS 260840Z 06005KT 14/09 A3017 RMK A01 T01380091  RH  076%=      5-min Rain = 0
KGGS 260845Z 06005KT 14/09 A3017 RMK A01 T01370090  RH  076%=      5-min Rain = 0
KGGS 260850Z 06004KT 14/09 A3017 RMK A01 T01350090  RH  076%=      5-min Rain = 0
KGGS 260855Z 06004KT 13/09 A3017 RMK A01 T01340090  RH  077%=      5-min Rain = 0
KGGS 260900Z 06004KT 13/09 A3017 RMK A01 T01320090  RH  078%=      5-min Rain = 0
KGGS 260905Z 06004KT 13/09 A3017 RMK A01 T01330090  RH  078%=      5-min Rain = 0
KGGS 260910Z 06005KT 13/09 A3017 RMK A01 T01320090  RH  078%=      5-min Rain = 0
KGGS 260915Z 05005KT 13/09 A3018 RMK A01 T01300090  RH  079%=      5-min Rain = 0
KGGS 260920Z 05005KT 13/09 A3017 RMK A01 T01290090  RH  080%=      5-min Rain = 0
KGGS 260925Z 06006KT 13/09 A3017 RMK A01 T01290091  RH  080%=      5-min Rain = 0
KGGS 260930Z 05006KT 13/09 A3017 RMK A01 T01300092  RH  080%=      5-min Rain = 0
KGGS 260935Z 05006KT 13/09 A3018 RMK A01 T01300093  RH  080%=      5-min Rain = 0
KGGS 260940Z 05006KT 13/09 A3018 RMK A01 T01300092  RH  081%=      5-min Rain = 0
KGGS 260945Z 05005KT 13/09 A3018 RMK A01 T01290092  RH  081%=      5-min Rain = 0
KGGS 260950Z 04006KT 13/09 A3019 RMK A01 T01280092  RH  081%=      5-min Rain = 0
KGGS 260955Z 05007KT 13/09 A3019 RMK A01 T01280092  RH  081%=      5-min Rain = 0
KGGS 261000Z 05007KT 13/09 A3019 RMK A01 T01290093  RH  081%=      5-min Rain = 0
KGGS 261005Z 06006KT 13/09 A3019 RMK A01 T01310094  RH  080%=      5-min Rain = 0
KGGS 261010Z 06006KT 13/09 A3019 RMK A01 T01330094  RH  079%=      5-min Rain = 0
KGGS 261015Z 05006KT 13/09 A302 RMK A01 T01330093  RH  079%=      5-min Rain = 0
KGGS 261020Z 05005KT 13/09 A302 RMK A01 T01310093  RH  080%=      5-min Rain = 0
KGGS 261025Z 05005KT 13/09 A302 RMK A01 T01290092  RH  081%=      5-min Rain = 0
KGGS 261030Z 04005KT 13/09 A302 RMK A01 T01270091  RH  081%=      5-min Rain = 0
KGGS 261035Z 04005KT 13/09 A302 RMK A01 T01260090  RH  081%=      5-min Rain = 0
KGGS 261040Z 04005KT 13/09 A302 RMK A01 T01250089  RH  081%=      5-min Rain = 0
KGGS 261045Z 05004KT 13/09 A302 RMK A01 T01250090  RH  082%=      5-min Rain = 0
KGGS 261050Z 07004KT 13/09 A302 RMK A01 T01270091  RH  081%=      5-min Rain = 0
KGGS 261055Z 09003KT 13/09 A302 RMK A01 T01280090  RH  080%=      5-min Rain = 0
KGGS 261100Z 10004KT 13/09 A302 RMK A01 T01310089  RH  078%=      5-min Rain = 0
KGGS 261105Z 11003KT 13/09 A302 RMK A01 T01310087  RH  077%=      5-min Rain = 0
KGGS 261110Z 11003KT 13/09 A3021 RMK A01 T01310087  RH  077%=      5-min Rain = 0
KGGS 261115Z 10003KT 13/09 A3021 RMK A01 T01330086  RH  076%=      5-min Rain = 0
KGGS 261120Z 10004KT 13/09 A3022 RMK A01 T01330086  RH  075%=      5-min Rain = 0
KGGS 261125Z 09004KT 13/09 A3022 RMK A01 T01320086  RH  076%=      5-min Rain = 0
KGGS 261130Z 08004KT 13/09 A3022 RMK A01 T01310086  RH  076%=      5-min Rain = 0
KGGS 261135Z 08005KT 13/09 A3022 RMK A01 T01310086  RH  076%=      5-min Rain = 0
KGGS 261140Z 08004KT 13/09 A3022 RMK A01 T01320087  RH  076%=      5-min Rain = 0
KGGS 261145Z 09004KT 13/09 A3022 RMK A01 T01310087  RH  077%=      5-min Rain = 0
KGGS 261150Z 08004KT 13/09 A3023 RMK A01 T01320087  RH  077%=      5-min Rain = 0
KGGS 261155Z 08006KT 13/09 A3023 RMK A01 T01310088  RH  077%=      5-min Rain = 0
KGGS 261200Z 08006KT 13/09 A3023 RMK A01 T01320089  RH  077%=      5-min Rain = 0
KGGS 261205Z 08005KT 13/09 A3023 RMK A01 T01320089  RH  077%=      5-min Rain = 0
KGGS 261210Z 07005KT 13/09 A3023 RMK A01 T01300089  RH  078%=      5-min Rain = 0
KGGS 261215Z 08004KT 13/09 A3023 RMK A01 T01280089  RH  079%=      5-min Rain = 0
KGGS 261220Z 10003KT 13/09 A3024 RMK A01 T01290090  RH  079%=      5-min Rain = 0
KGGS 261225Z 10003KT 13/09 A3024 RMK A01 T01280090  RH  080%=      5-min Rain = 0
KGGS 261230Z 08004KT 13/09 A3024 RMK A01 T01270090  RH  080%=      5-min Rain = 0
KGGS 261235Z 07004KT 13/09 A3025 RMK A01 T01260089  RH  081%=      5-min Rain = 0
KGGS 261240Z 08004KT 13/09 A3024 RMK A01 T01250090  RH  082%=      5-min Rain = 0
KGGS 261245Z 09003KT 13/09 A3024 RMK A01 T01250091  RH  082%=      5-min Rain = 0
KGGS 261250Z 08003KT 13/09 A3025 RMK A01 T01250091  RH  082%=      5-min Rain = 0
KGGS 261255Z 06004KT 12/09 A3025 RMK A01 T01240090  RH  083%=      5-min Rain = 0
KGGS 261300Z 07004KT 12/09 A3025 RMK A01 T01230091  RH  083%=      5-min Rain = 0
KGGS 261305Z 07005KT 13/09 A3025 RMK A01 T01250092  RH  083%=      5-min Rain = 0
KGGS 261310Z 08004KT 13/09 A3025 RMK A01 T01270093  RH  082%=      5-min Rain = 0
KGGS 261315Z 08004KT 13/09 A3025 RMK A01 T01310094  RH  081%=      5-min Rain = 0
KGGS 261320Z 08004KT 14/10 A3025 RMK A01 T01370096  RH  078%=      5-min Rain = 0
KGGS 261325Z 08005KT 14/10 A3025 RMK A01 T01410095  RH  076%=      5-min Rain = 0
KGGS 261330Z 09005KT 14/09 A3025 RMK A01 T01440094  RH  074%=      5-min Rain = 0
KGGS 261335Z 10006KT 15/09 A3024 RMK A01 T01470093  RH  072%=      5-min Rain = 0
KGGS 261340Z 10005KT 15/09 A3025 RMK A01 T01500093  RH  071%=      5-min Rain = 0
KGGS 261345Z 09005KT 15/09 A3025 RMK A01 T01510092  RH  070%=      5-min Rain = 0
KGGS 261350Z 09006KT 15/09 A3025 RMK A01 T01540091  RH  068%=      5-min Rain = 0
KGGS 261355Z 09007KT 16/08 A3025 RMK A01 T01560083  RH  064%=      5-min Rain = 0
KGGS 261400Z 10007G12KT 16/08 A3025 RMK A01 T01590082  RH  062%=      5-min Rain = 0
KGGS 261405Z 10007KT 16/08 A3025 RMK A01 T01600080  RH  060%=      5-min Rain = 0
KGGS 261410Z 10008KT 16/07 A3025 RMK A01 T01640074  RH  057%=      5-min Rain = 0
KGGS 261415Z 09007KT 17/07 A3026 RMK A01 T01670072  RH  055%=      5-min Rain = 0
KGGS 261420Z 10009G14KT 17/07 A3026 RMK A01 T01670068  RH  053%=      5-min Rain = 0
KGGS 261425Z 10008KT 16/06 A3026 RMK A01 T01610062  RH  053%=      5-min Rain = 0
KGGS 261430Z 09007G13KT 16/06 A3027 RMK A01 T01610061  RH  053%=      5-min Rain = 0
KGGS 261435Z 08008KT 16/06 A3028 RMK A01 T01610061  RH  053%=      5-min Rain = 0
KGGS 261440Z 07008KT 16/06 A3028 RMK A01 T01610064  RH  054%=      5-min Rain = 0
KGGS 261445Z 06010KT 16/06 A3029 RMK A01 T01600063  RH  054%=      5-min Rain = 0
KGGS 261450Z 07008KT 16/06 A3029 RMK A01 T01600062  RH  053%=      5-min Rain = 0
KGGS 261455Z 08008KT 17/07 A3028 RMK A01 T01690065  RH  052%=      5-min Rain = 0
KGGS 261500Z 07008G14KT 17/07 A3028 RMK A01 T01710065  RH  051%=      5-min Rain = 0
KGGS 261505Z 07009KT 18/06 A3028 RMK A01 T01750064  RH  050%=      5-min Rain = 0
KGGS 261510Z 08009G14KT 18/06 A3027 RMK A01 T01760057  RH  047%=      5-min Rain = 0
KGGS 261515Z 07010G15KT 18/06 A3027 RMK A01 T01790061  RH  047%=      5-min Rain = 0
KGGS 261520Z 07011G16KT 18/06 A3028 RMK A01 T01760055  RH  046%=      5-min Rain = 0
KGGS 261525Z 08012G17KT 18/05 A3027 RMK A01 T01750045  RH  043%=      5-min Rain = 0
KGGS 261530Z 09011G17KT 18/04 A3027 RMK A01 T01760042  RH  042%=      5-min Rain = 0
KGGS 261535Z 07013G20KT 18/05 A3027 RMK A01 T01790047  RH  043%=      5-min Rain = 0
KGGS 261540Z 08014KT 18/04 A3027 RMK A01 T01760040  RH  041%=      5-min Rain = 0
KGGS 261545Z 08014G19KT 18/04 A3027 RMK A01 T01780040  RH  041%=      5-min Rain = 0
KGGS 261550Z 09011G17KT 18/04 A3026 RMK A01 T01810042  RH  040%=      5-min Rain = 0
KGGS 261555Z 08013G18KT 18/04 A3026 RMK A01 T01810040  RH  040%=      5-min Rain = 0
KGGS 261600Z 09011G18KT 18/04 A3026 RMK A01 T01840043  RH  040%=      5-min Rain = 0
KGGS 261605Z 10012G20KT 19/04 A3026 RMK A01 T01890037  RH  037%=      5-min Rain = 0
KGGS 261610Z 10013G19KT 19/03 A3026 RMK A01 T01850028  RH  036%=      5-min Rain = 0
KGGS 261615Z 11014G20KT 19/03 A3026 RMK A01 T01880026  RH  035%=      5-min Rain = 0
KGGS 261620Z 11014G19KT 19/02 A3025 RMK A01 T01890022  RH  033%=      5-min Rain = 0
KGGS 261625Z 11012G18KT 19/02 A3025 RMK A01 T01910024  RH  034%=      5-min Rain = 0
KGGS 261630Z 10014G19KT 19/02 A3025 RMK A01 T01900022  RH  033%=      5-min Rain = 0
KGGS 261635Z 11013G18KT 19/03 A3025 RMK A01 T01930028  RH  034%=      5-min Rain = 0
KGGS 261640Z 12013G19KT 19/03 A3025 RMK A01 T01930025  RH  033%=      5-min Rain = 0
KGGS 261645Z 12013G20KT 20/03 A3025 RMK A01 T01950029  RH  034%=      5-min Rain = 0
KGGS 261650Z 12014G19KT 20/02 A3024 RMK A01 T01970022  RH  032%=      5-min Rain = 0
KGGS 261655Z 11013G18KT 20/02 A3024 RMK A01 T01960024  RH  032%=      5-min Rain = 0
KGGS 261700Z 11012G22KT 20/02 A3024 RMK A01 T02010021  RH  031%=      5-min Rain = 0
KGGS 261705Z 12013G19KT 20/02 A3024 RMK A01 T01990024  RH  032%=      5-min Rain = 0
KGGS 261710Z 12012G18KT 20/02 A3023 RMK A01 T02020020  RH  030%=      5-min Rain = 0
KGGS 261715Z 12010G16KT 21/03 A3023 RMK A01 T02060031  RH  032%=      5-min Rain = 0
KGGS 261720Z 12012G18KT 21/03 A3022 RMK A01 T02050027  RH  031%=      5-min Rain = 0
KGGS 261725Z 12014G21KT 21/02 A3022 RMK A01 T02050023  RH  030%=      5-min Rain = 0
KGGS 261730Z 13015G20KT 20/02 A3022 RMK A01 T02030019  RH  030%=      5-min Rain = 0
KGGS 261735Z 12013G18KT 20/02 A3022 RMK A01 T02030020  RH  030%=      5-min Rain = 0
KGGS 261740Z 13012G18KT 21/02 A3022 RMK A01 T02060023  RH  030%=      5-min Rain = 0
KGGS 261745Z 12012G17KT 21/03 A3021 RMK A01 T02110028  RH  030%=      5-min Rain = 0
KGGS 261750Z 13012G19KT 21/03 A3021 RMK A01 T02120033  RH  031%=      5-min Rain = 0
KGGS 261755Z 13012G17KT 21/03 A302 RMK A01 T02110030  RH  031%=      5-min Rain = 0
KGGS 261800Z 12013G18KT 21/03 A302 RMK A01 T02110028  RH  030%=      5-min Rain = 0
KGGS 261805Z 12011G19KT 21/03 A302 RMK A01 T02120032  RH  031%=      5-min Rain = 0
KGGS 261810Z 12011G17KT 21/03 A302 RMK A01 T02120031  RH  031%=      5-min Rain = 0
KGGS 261815Z 12013KT 21/03 A302 RMK A01 T02130028  RH  030%=      5-min Rain = 0
KGGS 261820Z 12012G18KT 22/03 A3019 RMK A01 T02150029  RH  030%=      5-min Rain = 0
KGGS 261825Z 12011G16KT 22/03 A3019 RMK A01 T02160030  RH  030%=      5-min Rain = 0
KGGS 261830Z 12011G16KT 22/03 A3019 RMK A01 T02160030  RH  030%=      5-min Rain = 0
KGGS 261835Z 12010G15KT 22/04 A3019 RMK A01 T02190035  RH  030%=      5-min Rain = 0
KGGS 261840Z 14011G19KT 22/04 A3019 RMK A01 T02200038  RH  031%=      5-min Rain = 0
KGGS 261845Z 13011KT 22/03 A3019 RMK A01 T02190034  RH  030%=      5-min Rain = 0
KGGS 261850Z 13008G16KT 22/04 A3018 RMK A01 T02210037  RH  030%=      5-min Rain = 0
KGGS 261855Z 13011G16KT 23/04 A3018 RMK A01 T02250039  RH  030%=      5-min Rain = 0
KGGS 261900Z 13009G15KT 23/04 A3018 RMK A01 T02260037  RH  030%=      5-min Rain = 0
KGGS 261905Z 14009G14KT 22/03 A3018 RMK A01 T02240034  RH  029%=      5-min Rain = 0
KGGS 261910Z 12009G14KT 23/04 A3017 RMK A01 T02250036  RH  030%=      5-min Rain = 0
KGGS 261915Z 12010G15KT 23/04 A3017 RMK A01 T02270040  RH  030%=      5-min Rain = 0
KGGS 261920Z 14010G16KT 23/05 A3017 RMK A01 T02290052  RH  032%=      5-min Rain = 0
KGGS 261925Z 12010G15KT 23/04 A3016 RMK A01 T02290040  RH  030%=      5-min Rain = 0
KGGS 261930Z 14010KT 23/05 A3016 RMK A01 T02290045  RH  031%=      5-min Rain = 0
KGGS 261935Z 11009KT 23/04 A3016 RMK A01 T02320037  RH  029%=      5-min Rain = 0
KGGS 261940Z 12009G14KT 23/04 A3015 RMK A01 T02320041  RH  029%=      5-min Rain = 0
KGGS 261945Z 11010KT 23/04 A3015 RMK A01 T02330041  RH  029%=      5-min Rain = 0
KGGS 261950Z 13010KT 23/05 A3015 RMK A01 T02330045  RH  030%=      5-min Rain = 0
KGGS 261955Z 14010G15KT 24/05 A3014 RMK A01 T02380052  RH  031%=      5-min Rain = 0
KGGS 262000Z 14008G14KT 24/05 A3014 RMK A01 T02370051  RH  031%=      5-min Rain = 0
KGGS 262005Z 13009KT 24/06 A3014 RMK A01 T02400056  RH  031%=      5-min Rain = 0
KGGS 262010Z 14012G18KT 24/05 A3013 RMK A01 T02390050  RH  030%=      5-min Rain = 0
KGGS 262015Z 14010KT 24/05 A3013 RMK A01 T02370049  RH  030%=      5-min Rain = 0
KGGS 262020Z 14010G15KT 24/06 A3012 RMK A01 T02400055  RH  031%=      5-min Rain = 0
KGGS 262025Z 14010G16KT 24/06 A3012 RMK A01 T02420056  RH  031%=      5-min Rain = 0
KGGS 262030Z 15013KT 24/05 A3012 RMK A01 T02380053  RH  031%=      5-min Rain = 0
KGGS 262035Z 13010G16KT 24/05 A3012 RMK A01 T02390054  RH  031%=      5-min Rain = 0
KGGS 262040Z 13011KT 24/06 A3011 RMK A01 T02430059  RH  031%=      5-min Rain = 0
KGGS 262045Z 13008G14KT 24/06 A3011 RMK A01 T02440062  RH  032%=      5-min Rain = 0
KGGS 262050Z 15010G16KT 24/06 A3011 RMK A01 T02430062  RH  032%=      5-min Rain = 0
KGGS 262055Z 15010G16KT 25/07 A301 RMK A01 T02460071  RH  034%=      5-min Rain = 0
KGGS 262100Z 15011G17KT 24/07 A301 RMK A01 T02440068  RH  033%=      5-min Rain = 0
KGGS 262105Z 15012G18KT 24/07 A3009 RMK A01 T02440071  RH  034%=      5-min Rain = 0
KGGS 262110Z 14011KT 24/07 A3009 RMK A01 T02410071  RH  034%=      5-min Rain = 0
KGGS 262115Z 14010G15KT 24/07 A3009 RMK A01 T02420071  RH  034%=      5-min Rain = 0
KGGS 262120Z 15011G19KT 25/08 A3008 RMK A01 T02460081  RH  036%=      5-min Rain = 0
KGGS 262125Z 15012G17KT 24/08 A3008 RMK A01 T02420075  RH  035%=      5-min Rain = 0
KGGS 262130Z 15014G21KT 25/08 A3008 RMK A01 T02450084  RH  037%=      5-min Rain = 0
KGGS 262135Z 16012G19KT 25/09 A3008 RMK A01 T02460085  RH  037%=      5-min Rain = 0
KGGS 262140Z 16012G17KT 24/08 A3008 RMK A01 T02430082  RH  037%=      5-min Rain = 0
KGGS 262145Z 16013G19KT 24/08 A3007 RMK A01 T02360080  RH  038%=      5-min Rain = 0
KGGS 262150Z 15012G17KT 24/08 A3007 RMK A01 T02350079  RH  038%=      5-min Rain = 0
KGGS 262155Z 15013G19KT 24/08 A3006 RMK A01 T02400078  RH  037%=      5-min Rain = 0
KGGS 262200Z 16012G17KT 24/08 A3006 RMK A01 T02420080  RH  037%=      5-min Rain = 0
KGGS 262205Z 15013KT 24/08 A3006 RMK A01 T02410078  RH  036%=      5-min Rain = 0
KGGS 262210Z 15012G18KT 24/08 A3006 RMK A01 T02380078  RH  037%=      5-min Rain = 0
KGGS 262215Z 15012G17KT 24/08 A3005 RMK A01 T02390080  RH  037%=      5-min Rain = 0
KGGS 262220Z 15013G19KT 24/08 A3005 RMK A01 T02410082  RH  037%=      5-min Rain = 0
KGGS 262225Z 16013G19KT 24/08 A3005 RMK A01 T02390081  RH  037%=      5-min Rain = 0
KGGS 262230Z 16013G19KT 24/08 A3005 RMK A01 T02410079  RH  037%=      5-min Rain = 0
KGGS 262235Z 16012KT 24/08 A3005 RMK A01 T02390081  RH  037%=      5-min Rain = 0
KGGS 262240Z 16011KT 24/08 A3004 RMK A01 T02380083  RH  038%=      5-min Rain = 0
KGGS 262245Z 15011G17KT 24/08 A3004 RMK A01 T02400081  RH  037%=      5-min Rain = 0
KGGS 262250Z 15013KT 24/08 A3004 RMK A01 T02410081  RH  037%=      5-min Rain = 0
KGGS 262255Z 16013G18KT 24/08 A3004 RMK A01 T02400083  RH  038%=      5-min Rain = 0
KGGS 262300Z 16013KT 24/08 A3003 RMK A01 T02420083  RH  037%=      5-min Rain = 0
KGGS 262305Z 15013KT 24/08 A3003 RMK A01 T02420084  RH  038%=      5-min Rain = 0
KGGS 262310Z 14012G17KT 24/08 A3003 RMK A01 T02420081  RH  037%=      5-min Rain = 0
KGGS 262315Z 15010G15KT 24/08 A3002 RMK A01 T02420084  RH  038%=      5-min Rain = 0
KGGS 262320Z 15012G17KT 24/08 A3002 RMK A01 T02410082  RH  037%=      5-min Rain = 0
KGGS 262325Z 15013KT 24/08 A3002 RMK A01 T02400081  RH  037%=      5-min Rain = 0
KGGS 262330Z 15012G19KT 24/09 A3002 RMK A01 T02400085  RH  038%=      5-min Rain = 0
KGGS 262335Z 15013G18KT 24/08 A3001 RMK A01 T02400084  RH  038%=      5-min Rain = 0
KGGS 262340Z 15012G17KT 24/09 A3001 RMK A01 T02390085  RH  038%=      5-min Rain = 0
KGGS 262345Z 15011KT 24/08 A3001 RMK A01 T02380084  RH  038%=      5-min Rain = 0
KGGS 262350Z 15010KT 24/09 A3001 RMK A01 T02390090  RH  040%=      5-min Rain = 0
KGGS 262355Z 17014G19KT 24/09 A3001 RMK A01 T02390091  RH  040%=      5-min Rain = 0
KGGS 270000Z 17012KT 24/09 A3001 RMK A01 T02390091  RH  040%=      5-min Rain = 0
KGGS 270005Z 17014G19KT 24/09 A3001 RMK A01 T02370092  RH  041%=      5-min Rain = 0
KGGS 270010Z 17013G18KT 24/09 A3001 RMK A01 T02350091  RH  041%=      5-min Rain = 0
KGGS 270015Z 17013G18KT 23/09 A30 RMK A01 T02340091  RH  041%=      5-min Rain = 0
KGGS 270020Z 17014G19KT 23/09 A30 RMK A01 T02330091  RH  042%=      5-min Rain = 0
KGGS 270025Z 16012KT 23/09 A30 RMK A01 T02320093  RH  043%=      5-min Rain = 0
KGGS 270030Z 16013KT 23/09 A30 RMK A01 T02300093  RH  043%=      5-min Rain = 0
KGGS 270035Z 16010KT 23/10 A2999 RMK A01 T02290096  RH  044%=      5-min Rain = 0
KGGS 270040Z 15010KT 23/09 A2999 RMK A01 T02260094  RH  044%=      5-min Rain = 0
KGGS 270045Z 15009G14KT 22/09 A2999 RMK A01 T02240094  RH  045%=      5-min Rain = 0
KGGS 270050Z 15011KT 22/09 A2999 RMK A01 T02220094  RH  045%=      5-min Rain = 0
KGGS 270055Z 15010KT 22/10 A2998 RMK A01 T02190096  RH  047%=      5-min Rain = 0
KGGS 270100Z 15011KT 22/10 A2998 RMK A01 T02160095  RH  047%=      5-min Rain = 0
KGGS 270105Z 15012KT 22/09 A2998 RMK A01 T02150094  RH  048%=      5-min Rain = 0
KGGS 270110Z 15012G18KT 21/09 A2997 RMK A01 T02130094  RH  048%=      5-min Rain = 0
KGGS 270115Z 15012G17KT 21/09 A2997 RMK A01 T02100093  RH  048%=      5-min Rain = 0
KGGS 270120Z 15009KT 21/09 A2998 RMK A01 T02060094  RH  050%=      5-min Rain = 0
KGGS 270125Z 15009KT 20/09 A2998 RMK A01 T02040094  RH  050%=      5-min Rain = 0
KGGS 270130Z 15009KT 20/09 A2998 RMK A01 T02030094  RH  051%=      5-min Rain = 0
KGGS 270135Z 15010G15KT 20/09 A2998 RMK A01 T02030092  RH  051%=      5-min Rain = 0
KGGS 270140Z 15011KT 20/09 A2999 RMK A01 T02020092  RH  050%=      5-min Rain = 0
KGGS 270145Z 15011KT 20/09 A2999 RMK A01 T02000091  RH  051%=      5-min Rain = 0
KGGS 270150Z 15011KT 20/09 A2999 RMK A01 T02000090  RH  050%=      5-min Rain = 0
KGGS 270155Z 15010KT 20/09 A2999 RMK A01 T01980090  RH  051%=      5-min Rain = 0
KGGS 270200Z 15010KT 20/09 A2999 RMK A01 T01970090  RH  052%=      5-min Rain = 0
KGGS 270205Z 15011KT 20/09 A2999 RMK A01 T01970090  RH  052%=      5-min Rain = 0
KGGS 270210Z 15010KT 20/09 A2999 RMK A01 T01970090  RH  051%=      5-min Rain = 0
KGGS 270215Z 15009KT 20/09 A30 RMK A01 T01950091  RH  052%=      5-min Rain = 0
KGGS 270220Z 15008KT 19/09 A2999 RMK A01 T01930091  RH  053%=      5-min Rain = 0
KGGS 270225Z 15009KT 19/09 A30 RMK A01 T01910092  RH  054%=      5-min Rain = 0
KGGS 270230Z 15008KT 19/09 A30 RMK A01 T01910092  RH  054%=      5-min Rain = 0
KGGS 270235Z 15009KT 19/09 A30 RMK A01 T01900092  RH  054%=      5-min Rain = 0
KGGS 270240Z 15009G14KT 19/09 A30 RMK A01 T01900092  RH  055%=      5-min Rain = 0
KGGS 270245Z 15010KT 19/09 A2999 RMK A01 T01880093  RH  055%=      5-min Rain = 0
KGGS 270250Z 15010KT 19/09 A2999 RMK A01 T01880092  RH  055%=      5-min Rain = 0
KGGS 270255Z 15010KT 19/09 A2999 RMK A01 T01880092  RH  056%=      5-min Rain = 0
KGGS 270300Z 15010KT 19/09 A2999 RMK A01 T01870093  RH  056%=      5-min Rain = 0
KGGS 270305Z 15009KT 18/09 A2999 RMK A01 T01840094  RH  057%=      5-min Rain = 0
KGGS 270310Z 15008KT 18/09 A30 RMK A01 T01820094  RH  058%=      5-min Rain = 0
KGGS 270315Z 15008KT 18/10 A30 RMK A01 T01800095  RH  059%=      5-min Rain = 0
KGGS 270320Z 15008KT 18/10 A30 RMK A01 T01790095  RH  060%=      5-min Rain = 0
KGGS 270325Z 15008KT 18/10 A30 RMK A01 T01770095  RH  061%=      5-min Rain = 0
KGGS 270330Z 16007KT 18/10 A30 RMK A01 T01750096  RH  062%=      5-min Rain = 0
KGGS 270335Z 16008KT 17/10 A30 RMK A01 T01730097  RH  063%=      5-min Rain = 0
KGGS 270340Z 16008KT 17/10 A30 RMK A01 T01730096  RH  063%=      5-min Rain = 0
KGGS 270345Z 15008KT 18/10 A30 RMK A01 T01760096  RH  061%=      5-min Rain = 0
KGGS 270350Z 15007KT 18/10 A30 RMK A01 T01780095  RH  060%=      5-min Rain = 0
KGGS 270355Z 15008KT 18/10 A30 RMK A01 T01790095  RH  060%=      5-min Rain = 0
KGGS 270400Z 15008KT 18/10 A30 RMK A01 T01780096  RH  060%=      5-min Rain = 0
KGGS 270405Z 15008KT 18/10 A2999 RMK A01 T01760096  RH  061%=      5-min Rain = 0
KGGS 270410Z 14007KT 17/10 A2999 RMK A01 T01740097  RH  062%=      5-min Rain = 0
KGGS 270415Z 14006KT 17/10 A2999 RMK A01 T01710097  RH  064%=      5-min Rain = 0
KGGS 270420Z 13006KT 17/10 A2999 RMK A01 T01680097  RH  065%=      5-min Rain = 0
KGGS 270425Z 13004KT 17/10 A2999 RMK A01 T01660098  RH  066%=      5-min Rain = 0
KGGS 270430Z 13004KT 16/10 A2999 RMK A01 T01630098  RH  068%=      5-min Rain = 0
KGGS 270435Z 13003KT 16/10 A2999 RMK A01 T01600099  RH  069%=      5-min Rain = 0
KGGS 270440Z 14003KT 16/10 A2999 RMK A01 T01570099  RH  071%=      5-min Rain = 0
KGGS 270445Z 14003KT 15/10 A2998 RMK A01 T01530099  RH  072%=      5-min Rain = 0
KGGS 270450Z 15004KT 15/10 A2998 RMK A01 T01500099  RH  074%=      5-min Rain = 0
KGGS 270455Z 16003KT 15/10 A2998 RMK A01 T01480099  RH  075%=      5-min Rain = 0

Page generated in 0.0089 seconds.